createdAt,value
2022-12-25T00:00:49.647Z,4.50
2022-12-25T00:03:16.799Z,4.22
2022-12-25T00:05:43.259Z,4.95
2022-12-25T00:08:09.761Z,5.10
2022-12-25T00:10:42.876Z,4.95
2022-12-25T00:13:11.297Z,4.45
2022-12-25T00:15:39.211Z,4.80
2022-12-25T00:18:05.598Z,4.72
2022-12-25T00:20:31.884Z,5.43
2022-12-25T00:22:58.203Z,4.78
2022-12-25T00:25:24.567Z,5.00
2022-12-25T00:27:50.947Z,5.03
2022-12-25T00:30:17.257Z,5.22
2022-12-25T00:32:43.611Z,5.35
2022-12-25T00:35:09.988Z,5.55
2022-12-25T00:37:36.321Z,5.05
2022-12-25T00:40:02.834Z,5.93
2022-12-25T00:42:29.233Z,5.65
2022-12-25T00:44:55.531Z,5.63
2022-12-25T00:47:21.978Z,5.57
2022-12-25T00:49:48.454Z,5.38
2022-12-25T00:52:15.297Z,5.63
2022-12-25T00:54:41.600Z,5.55
2022-12-25T00:57:08.016Z,6.43
2022-12-25T00:59:34.523Z,5.40
2022-12-25T01:02:20.894Z,5.07
2022-12-25T01:04:47.309Z,5.88
2022-12-25T01:07:13.809Z,5.40
2022-12-25T01:09:58.794Z,5.15
2022-12-25T01:12:25.137Z,5.75
2022-12-25T01:14:51.506Z,6.07
2022-12-25T01:17:17.905Z,5.55
2022-12-25T01:19:44.294Z,5.20
2022-12-25T01:22:10.607Z,5.18
2022-12-25T01:24:37.016Z,6.03
2022-12-25T01:27:03.336Z,5.85
2022-12-25T01:29:29.772Z,5.25
2022-12-25T01:31:56.134Z,5.43
2022-12-25T01:34:22.540Z,5.05
2022-12-25T01:36:48.890Z,5.35
2022-12-25T01:39:15.187Z,4.88
2022-12-25T01:41:41.499Z,6.15
2022-12-25T01:44:27.791Z,5.63
2022-12-25T01:51:51.840Z,5.10
2022-12-25T01:54:22.300Z,5.25
2022-12-25T01:56:49.658Z,5.57
2022-12-25T01:59:17.658Z,5.50
2022-12-25T02:01:44.241Z,5.30
2022-12-25T02:04:39.953Z,4.97
2022-12-25T02:07:07.826Z,5.72
2022-12-25T02:09:34.137Z,5.95
2022-12-25T02:12:00.732Z,6.43
2022-12-25T02:14:28.304Z,6.82
2022-12-25T02:17:04.953Z,5.75
2022-12-25T02:19:37.361Z,6.22
2022-12-25T02:22:15.591Z,6.30
2022-12-25T02:24:50.595Z,6.03
2022-12-25T02:27:29.169Z,5.87
2022-12-25T02:30:06.418Z,5.68
2022-12-25T02:32:36.390Z,5.57
2022-12-25T02:35:08.928Z,5.38
2022-12-25T02:37:47.752Z,5.57
2022-12-25T02:40:39.794Z,5.00
2022-12-25T02:43:30.209Z,4.93
2022-12-25T02:46:17.036Z,5.07
2022-12-25T02:49:03.998Z,5.18
2022-12-25T02:51:51.632Z,5.28
2022-12-25T02:54:38.720Z,4.95
2022-12-25T02:57:26.011Z,5.15
2022-12-25T03:00:12.588Z,5.85
2022-12-25T03:02:58.399Z,5.07
2022-12-25T03:05:43.889Z,4.93
2022-12-25T03:08:13.768Z,5.45
2022-12-25T03:11:00.155Z,6.47
2022-12-25T03:13:30.559Z,6.70
2022-12-25T03:16:15.785Z,7.35
2022-12-25T03:18:42.317Z,7.45
2022-12-25T03:21:27.049Z,6.72
2022-12-25T03:24:14.872Z,6.32
2022-12-25T03:26:56.663Z,7.50
2022-12-25T03:29:42.878Z,7.82
2022-12-25T03:32:14.040Z,7.65
2022-12-25T03:34:59.131Z,7.80
2022-12-25T03:37:43.567Z,6.75
2022-12-25T03:40:28.629Z,7.75
2022-12-25T03:43:28.677Z,7.68
2022-12-25T03:46:22.190Z,7.57
2022-12-25T03:49:10.513Z,7.80
2022-12-25T03:51:56.198Z,6.85
2022-12-25T03:54:44.338Z,7.53
2022-12-25T03:57:30.511Z,7.63
2022-12-25T04:00:15.565Z,7.55
2022-12-25T04:03:00.696Z,9.02
2022-12-25T04:05:45.757Z,7.85
2022-12-25T04:08:30.900Z,8.30
2022-12-25T04:11:15.985Z,9.13
2022-12-25T04:14:01.111Z,7.85
2022-12-25T04:16:46.131Z,7.82
2022-12-25T04:19:31.092Z,7.78
2022-12-25T04:22:15.837Z,8.43
2022-12-25T04:25:00.893Z,8.13
2022-12-25T04:27:46.087Z,7.60
2022-12-25T04:30:31.089Z,8.93
2022-12-25T04:33:19.294Z,9.07
2022-12-25T04:36:04.887Z,8.88
2022-12-25T04:38:31.244Z,8.52
2022-12-25T04:40:57.583Z,9.13
2022-12-25T04:43:25.174Z,8.45
2022-12-25T04:45:55.190Z,7.97
2022-12-25T04:48:21.592Z,8.18
2022-12-25T04:50:47.976Z,8.05
2022-12-25T04:53:14.355Z,8.60
2022-12-25T04:55:40.692Z,6.82
2022-12-25T04:58:07.116Z,6.05
2022-12-25T05:00:33.448Z,6.47
2022-12-25T05:02:59.919Z,5.78
2022-12-25T05:05:26.502Z,6.20
2022-12-25T05:07:52.825Z,5.72
2022-12-25T05:10:19.165Z,5.45
2022-12-25T05:12:45.576Z,5.20
2022-12-25T05:15:11.898Z,4.90
2022-12-25T05:17:38.278Z,4.75
2022-12-25T05:20:05.589Z,4.57
2022-12-25T05:22:31.985Z,4.47
2022-12-25T05:24:58.344Z,4.47
2022-12-25T05:27:24.755Z,4.50
2022-12-25T05:29:51.137Z,5.05
2022-12-25T05:32:17.476Z,4.50
2022-12-25T05:34:43.810Z,5.28
2022-12-25T05:37:10.219Z,4.88
2022-12-25T05:39:36.571Z,5.05
2022-12-25T05:42:02.951Z,5.10
2022-12-25T05:44:29.240Z,5.22
2022-12-25T05:46:55.612Z,5.10
2022-12-25T05:49:22.007Z,5.43
2022-12-25T05:51:48.352Z,6.20
2022-12-25T05:54:14.663Z,6.15
2022-12-25T05:56:41.012Z,6.43
2022-12-25T05:59:07.334Z,6.95
2022-12-25T06:01:33.760Z,6.55
2022-12-25T06:04:00.239Z,7.43
2022-12-25T06:06:26.740Z,7.18
2022-12-25T06:08:54.098Z,7.05
2022-12-25T06:11:20.535Z,7.70
2022-12-25T06:13:49.763Z,8.13
2022-12-25T06:16:16.136Z,9.05
2022-12-25T06:18:43.496Z,9.95
2022-12-25T06:21:11.222Z,9.43
2022-12-25T06:23:38.103Z,9.23
2022-12-25T06:26:05.898Z,9.00
2022-12-25T06:28:32.192Z,9.68
2022-12-25T06:30:58.652Z,9.57
2022-12-25T06:33:24.987Z,10.48
2022-12-25T06:35:51.299Z,10.50
2022-12-25T06:38:17.789Z,10.32
2022-12-25T06:40:44.093Z,9.70
2022-12-25T06:43:10.660Z,10.23
2022-12-25T06:45:38.166Z,10.60
2022-12-25T06:48:04.602Z,10.32
2022-12-25T06:50:31.029Z,11.13
2022-12-25T06:52:57.382Z,11.10
2022-12-25T06:55:23.753Z,11.20
2022-12-25T06:57:50.086Z,11.00
2022-12-25T07:00:16.463Z,11.77
2022-12-25T07:02:47.049Z,12.63
2022-12-25T07:05:13.485Z,12.57
2022-12-25T07:07:39.861Z,13.32
2022-12-25T07:10:06.605Z,13.80
2022-12-25T07:12:32.927Z,15.27
2022-12-25T07:14:59.286Z,15.57
2022-12-25T07:17:25.665Z,15.35
2022-12-25T07:19:52.416Z,15.82
2022-12-25T07:22:18.865Z,16.90
2022-12-25T07:24:45.336Z,17.83
2022-12-25T07:27:11.765Z,18.58
2022-12-25T07:29:38.270Z,18.00
2022-12-25T07:32:04.926Z,16.95
2022-12-25T07:34:31.293Z,17.80
2022-12-25T07:36:57.703Z,19.50
2022-12-25T07:39:24.062Z,18.77
2022-12-25T07:41:50.942Z,20.63
2022-12-25T07:44:17.352Z,21.70
2022-12-25T07:46:43.675Z,21.42
2022-12-25T07:49:10.736Z,20.42
2022-12-25T07:51:37.137Z,16.67
2022-12-25T07:54:03.558Z,14.77
2022-12-25T07:56:29.926Z,14.63
2022-12-25T07:58:56.667Z,13.65
2022-12-25T08:01:24.017Z,13.07
2022-12-25T08:03:54.825Z,10.73
2022-12-25T08:06:21.996Z,11.73
2022-12-25T08:08:48.617Z,12.23
2022-12-25T08:11:15.021Z,11.73
2022-12-25T08:13:41.401Z,10.48
2022-12-25T08:16:08.718Z,11.60
2022-12-25T08:18:36.149Z,10.63
2022-12-25T08:21:06.727Z,8.95
2022-12-25T08:23:37.183Z,9.30
2022-12-25T08:26:05.290Z,7.32
2022-12-25T08:28:32.340Z,7.53
2022-12-25T08:30:58.750Z,6.75
2022-12-25T08:33:25.197Z,5.82
2022-12-25T08:35:51.557Z,4.78
2022-12-25T08:38:17.884Z,4.75
2022-12-25T08:40:44.224Z,5.03
2022-12-25T08:43:10.577Z,5.75
2022-12-25T08:45:36.898Z,5.20
2022-12-25T08:48:03.363Z,5.93
2022-12-25T08:50:29.771Z,6.07
2022-12-25T08:52:56.160Z,6.38
2022-12-25T08:55:22.554Z,6.20
2022-12-25T08:57:48.857Z,6.10
2022-12-25T09:00:15.634Z,6.30
2022-12-25T09:02:42.118Z,5.78
2022-12-25T09:05:08.930Z,6.15
2022-12-25T09:07:35.243Z,5.13
2022-12-25T09:10:02.092Z,5.05
2022-12-25T09:12:28.406Z,4.75
2022-12-25T09:14:54.776Z,4.53
2022-12-25T09:17:21.098Z,3.95
2022-12-25T09:19:47.447Z,4.40
2022-12-25T09:22:13.765Z,2.80
2022-12-25T09:24:40.157Z,2.78
2022-12-25T09:27:07.181Z,2.30
2022-12-25T09:29:33.530Z,2.38
2022-12-25T09:31:59.827Z,3.00
2022-12-25T09:34:26.155Z,2.80
2022-12-25T09:36:52.584Z,3.05
2022-12-25T09:39:18.903Z,2.80
2022-12-25T09:41:48.300Z,3.10
2022-12-25T09:44:26.404Z,2.65
2022-12-25T09:46:58.503Z,3.72
2022-12-25T09:49:43.359Z,3.33
2022-12-25T09:52:15.500Z,3.13
2022-12-25T09:54:46.656Z,3.83
2022-12-25T09:57:13.489Z,3.50
2022-12-25T09:59:41.708Z,3.67
2022-12-25T10:02:23.787Z,4.15
2022-12-25T10:05:04.201Z,4.35
2022-12-25T10:07:36.342Z,4.47
2022-12-25T10:10:09.477Z,3.88
2022-12-25T10:12:40.372Z,4.22
2022-12-25T10:15:25.226Z,4.25
2022-12-25T10:18:00.373Z,4.63
2022-12-25T10:20:38.196Z,4.18
2022-12-25T10:23:10.062Z,3.55
2022-12-25T10:25:36.828Z,4.50
2022-12-25T10:28:05.492Z,3.92
2022-12-25T10:30:32.350Z,3.35
2022-12-25T10:32:59.031Z,3.97
2022-12-25T10:35:26.908Z,4.18
2022-12-25T10:38:03.146Z,3.97
2022-12-25T10:40:29.452Z,4.18
2022-12-25T10:42:59.279Z,3.70
2022-12-25T10:45:25.643Z,4.25
2022-12-25T10:48:06.788Z,4.03
2022-12-25T10:50:33.943Z,3.95
2022-12-25T10:53:04.324Z,4.15
2022-12-25T10:55:31.086Z,3.22
2022-12-25T10:57:58.601Z,4.05
2022-12-25T11:00:29.928Z,3.60
2022-12-25T11:02:56.922Z,4.03
2022-12-25T11:05:41.386Z,4.10
2022-12-25T11:08:18.417Z,4.93
2022-12-25T11:10:51.775Z,5.25
2022-12-25T11:13:20.514Z,5.80
2022-12-25T11:15:50.637Z,6.28
2022-12-25T11:18:19.736Z,7.03
2022-12-25T11:20:53.981Z,6.03
2022-12-25T11:23:21.237Z,5.03
2022-12-25T11:25:58.067Z,3.30
2022-12-25T11:28:24.809Z,3.90
2022-12-25T11:30:53.403Z,3.92
2022-12-25T11:33:20.681Z,3.72
2022-12-25T11:35:52.856Z,3.72
2022-12-25T11:38:19.609Z,3.33
2022-12-25T11:40:50.310Z,3.47
2022-12-25T11:43:16.615Z,3.10
2022-12-25T11:45:46.245Z,3.78
2022-12-25T11:48:12.574Z,3.30
2022-12-25T11:50:43.446Z,3.60
2022-12-25T11:53:15.624Z,3.70
2022-12-25T11:55:44.310Z,3.90
2022-12-25T11:58:23.056Z,3.60
2022-12-25T12:00:51.336Z,3.92
2022-12-25T12:03:35.766Z,3.50
2022-12-25T12:06:09.039Z,4.03
2022-12-25T12:08:36.169Z,4.60
2022-12-25T12:11:15.642Z,3.83
2022-12-25T12:14:00.675Z,4.15
2022-12-25T12:16:27.130Z,3.85
2022-12-25T12:18:53.588Z,3.90
2022-12-25T12:21:20.842Z,4.03
2022-12-25T12:23:50.080Z,4.55
2022-12-25T12:26:23.935Z,4.43
2022-12-25T12:28:51.013Z,4.68
2022-12-25T12:31:17.708Z,4.95
2022-12-25T12:33:50.482Z,4.68
2022-12-25T12:36:25.164Z,4.40
2022-12-25T12:39:01.632Z,4.32
2022-12-25T12:41:40.723Z,3.55
2022-12-25T12:44:07.600Z,3.90
2022-12-25T12:46:36.307Z,3.30
2022-12-25T12:49:08.650Z,4.10
2022-12-25T12:51:38.209Z,3.90
2022-12-25T12:54:07.087Z,4.10
2022-12-25T12:56:33.445Z,3.78
2022-12-25T12:58:59.856Z,3.85
2022-12-25T13:01:26.252Z,4.00
2022-12-25T13:03:52.590Z,4.18
2022-12-25T13:06:27.779Z,3.95
2022-12-25T13:09:00.179Z,4.15
2022-12-25T13:11:29.591Z,4.47
2022-12-25T13:13:57.649Z,4.57
2022-12-25T13:16:29.340Z,4.85
2022-12-25T13:18:56.252Z,4.50
2022-12-25T13:21:26.509Z,4.70
2022-12-25T13:23:57.778Z,3.78
2022-12-25T13:26:24.632Z,4.30
2022-12-25T13:28:51.007Z,3.95
2022-12-25T13:31:18.837Z,3.65
2022-12-25T13:33:46.892Z,4.05
2022-12-25T13:36:13.995Z,4.30
2022-12-25T13:38:47.799Z,3.97
2022-12-25T13:41:40.045Z,4.18
2022-12-25T13:44:26.596Z,4.82
2022-12-25T13:46:52.933Z,4.38
2022-12-25T13:49:20.566Z,3.85
2022-12-25T13:51:47.283Z,4.90
2022-12-25T13:54:14.466Z,5.60
2022-12-25T13:56:51.700Z,5.60
2022-12-25T13:59:19.853Z,5.90
2022-12-25T14:01:46.750Z,4.15
2022-12-25T14:04:20.941Z,4.60
2022-12-25T14:06:47.846Z,4.43
2022-12-25T14:09:14.334Z,5.22
2022-12-25T14:11:42.883Z,5.13
2022-12-25T14:14:27.627Z,4.93
2022-12-25T14:16:56.153Z,5.05
2022-12-25T14:19:24.340Z,3.38
2022-12-25T14:21:54.007Z,6.13
2022-12-25T14:24:22.512Z,5.75
2022-12-25T14:26:56.108Z,5.50
2022-12-25T14:29:28.022Z,5.18
2022-12-25T14:31:57.013Z,4.53
2022-12-25T14:34:24.235Z,4.15
2022-12-25T14:36:52.064Z,5.90
2022-12-25T14:39:37.703Z,5.65
2022-12-25T14:42:23.919Z,6.22
2022-12-25T14:54:36.830Z,6.10
2022-12-25T14:57:03.163Z,6.18
2022-12-25T14:59:29.522Z,5.93
2022-12-25T15:01:57.340Z,5.88
2022-12-25T15:04:24.746Z,5.97
2022-12-25T15:06:55.693Z,6.15
2022-12-25T15:09:22.720Z,3.58
2022-12-25T15:11:55.405Z,3.03
2022-12-25T15:14:25.111Z,4.50
2022-12-25T15:16:53.629Z,5.93
2022-12-25T15:19:26.549Z,5.68
2022-12-25T15:21:54.886Z,5.93
2022-12-25T15:24:21.233Z,4.05
2022-12-25T15:26:47.654Z,5.55
2022-12-25T15:29:14.032Z,4.22
2022-12-25T15:31:40.846Z,4.85
2022-12-25T15:34:15.400Z,3.20
2022-12-25T15:36:41.708Z,3.13
2022-12-25T15:39:08.114Z,5.30
2022-12-25T15:41:54.810Z,8.45
2022-12-25T15:44:21.607Z,4.22
2022-12-25T15:46:48.328Z,2.88
2022-12-25T15:49:15.666Z,5.05
2022-12-25T15:51:42.731Z,6.43
2022-12-25T15:54:09.386Z,4.05
2022-12-25T15:56:43.289Z,4.60
2022-12-25T15:59:11.345Z,4.90
2022-12-25T16:01:37.834Z,4.35
2022-12-25T16:04:04.460Z,6.63
2022-12-25T16:06:30.776Z,7.00
2022-12-25T16:08:57.138Z,6.80
2022-12-25T16:11:23.479Z,6.85
2022-12-25T16:13:49.762Z,7.18
2022-12-25T16:16:16.207Z,7.20
2022-12-25T16:18:47.424Z,7.82
2022-12-25T16:21:16.517Z,9.10
2022-12-25T16:23:43.020Z,9.15
2022-12-25T16:26:09.665Z,9.25
2022-12-25T16:28:35.981Z,9.55
2022-12-25T16:31:02.429Z,9.18
2022-12-25T16:33:28.794Z,9.30
2022-12-25T16:35:55.360Z,8.60
2022-12-25T16:38:21.713Z,8.23
2022-12-25T16:40:54.314Z,9.57
2022-12-25T16:43:24.113Z,9.30
2022-12-25T16:45:50.849Z,9.05
2022-12-25T16:48:17.202Z,8.43
2022-12-25T16:50:43.686Z,9.52
2022-12-25T16:53:10.352Z,9.48
2022-12-25T16:55:39.711Z,10.18
2022-12-25T16:58:06.564Z,11.57
2022-12-25T17:00:33.022Z,10.57
2022-12-25T17:03:00.111Z,9.55
2022-12-25T17:05:26.690Z,10.75
2022-12-25T17:07:53.068Z,10.05
2022-12-25T17:10:21.164Z,9.77
2022-12-25T17:12:47.747Z,10.55
2022-12-25T17:15:14.098Z,12.25
2022-12-25T17:17:40.445Z,11.43
2022-12-25T17:20:07.084Z,10.80
2022-12-25T17:22:33.423Z,10.80
2022-12-25T17:24:59.785Z,10.85
2022-12-25T17:27:26.749Z,11.63
2022-12-25T17:29:53.124Z,12.07
2022-12-25T17:32:19.539Z,11.45
2022-12-25T17:34:46.059Z,12.30
2022-12-25T17:37:12.382Z,13.60
2022-12-25T17:39:39.520Z,11.98
2022-12-25T17:42:05.900Z,11.50
2022-12-25T17:44:32.187Z,11.68
2022-12-25T17:46:58.739Z,10.60
2022-12-25T17:49:25.504Z,11.45
2022-12-25T17:51:53.280Z,11.23
2022-12-25T17:54:19.609Z,11.88
2022-12-25T17:56:46.016Z,12.13
2022-12-25T17:59:17.870Z,11.27
2022-12-25T18:01:44.676Z,10.80
2022-12-25T18:04:11.193Z,11.15
2022-12-25T18:06:37.658Z,11.48
2022-12-25T18:09:06.050Z,13.00
2022-12-25T18:11:33.234Z,12.50
2022-12-25T18:14:04.380Z,12.50
2022-12-25T18:16:31.919Z,13.30
2022-12-25T18:18:59.599Z,12.35
2022-12-25T18:21:26.537Z,12.95
2022-12-25T18:23:52.825Z,12.68
2022-12-25T18:26:19.848Z,13.55
2022-12-25T18:28:47.147Z,14.77
2022-12-25T18:31:15.273Z,14.43
2022-12-25T18:33:41.891Z,14.50
2022-12-25T18:36:08.537Z,13.52
2022-12-25T18:38:35.566Z,14.45
2022-12-25T18:41:04.161Z,15.18
2022-12-25T18:43:53.020Z,15.13
2022-12-25T18:46:18.095Z,13.23
2022-12-25T18:48:44.516Z,14.70
2022-12-25T18:51:12.133Z,14.27
2022-12-25T18:53:38.767Z,15.95
2022-12-25T18:56:05.240Z,15.80
2022-12-25T18:58:31.841Z,16.33
2022-12-25T19:00:58.294Z,15.23
2022-12-25T19:03:24.749Z,16.60
2022-12-25T19:05:51.624Z,16.33
2022-12-25T19:08:17.996Z,15.82
2022-12-25T19:10:44.432Z,17.20
2022-12-25T19:13:11.003Z,16.27
2022-12-25T19:15:40.742Z,16.75
2022-12-25T19:18:07.095Z,15.95
2022-12-25T19:20:33.469Z,15.73
2022-12-25T19:22:59.801Z,15.98
2022-12-25T19:25:26.209Z,16.98
2022-12-25T19:27:52.524Z,18.75
2022-12-25T19:30:18.980Z,18.17
2022-12-25T19:32:45.337Z,19.58
2022-12-25T19:35:11.763Z,17.90
2022-12-25T19:37:38.082Z,18.70
2022-12-25T19:40:04.640Z,18.05
2022-12-25T19:42:31.000Z,18.02
2022-12-25T19:44:57.317Z,18.23
2022-12-25T19:47:23.707Z,17.00
2022-12-25T19:49:53.234Z,16.83
2022-12-25T19:52:20.251Z,15.90
2022-12-25T19:54:50.005Z,16.88
2022-12-25T19:57:16.337Z,20.42
2022-12-25T19:59:42.697Z,19.92
2022-12-25T20:02:09.469Z,18.00
2022-12-25T20:04:35.910Z,17.25
2022-12-25T20:07:02.236Z,14.30
2022-12-25T20:09:28.669Z,12.73
2022-12-25T20:11:55.048Z,14.27
2022-12-25T20:14:21.434Z,13.57
2022-12-25T20:16:47.948Z,13.18
2022-12-25T20:19:14.367Z,10.68
2022-12-25T20:21:41.174Z,12.57
2022-12-25T20:24:10.066Z,10.23
2022-12-25T20:26:37.033Z,11.55
2022-12-25T20:29:03.883Z,12.05
2022-12-25T20:31:31.671Z,12.32
2022-12-25T20:33:59.367Z,10.68
2022-12-25T20:36:28.534Z,11.68
2022-12-25T20:38:59.009Z,10.85
2022-12-25T20:41:27.562Z,10.48
2022-12-25T20:43:54.661Z,10.27
2022-12-25T20:46:22.039Z,10.43
2022-12-25T20:48:48.381Z,11.25
2022-12-25T20:51:19.120Z,10.70
2022-12-25T20:53:45.785Z,9.70
2022-12-25T20:56:12.881Z,11.90
2022-12-25T20:58:39.669Z,10.70
2022-12-25T21:01:11.421Z,10.60
2022-12-25T21:03:38.144Z,10.80
2022-12-25T21:06:04.652Z,11.05
2022-12-25T21:08:31.083Z,8.55
2022-12-25T21:11:00.733Z,9.85
2022-12-25T21:13:29.266Z,9.50
2022-12-25T21:15:56.305Z,9.48
2022-12-25T21:18:26.848Z,9.82
2022-12-25T21:20:57.662Z,9.48
2022-12-25T21:23:26.565Z,8.02
2022-12-25T21:25:53.629Z,7.30
2022-12-25T21:28:20.456Z,8.10
2022-12-25T21:30:46.907Z,8.55
2022-12-25T21:33:32.473Z,7.70
2022-12-25T21:36:08.521Z,8.13
2022-12-25T21:38:35.268Z,8.23
2022-12-25T21:41:02.696Z,8.35
2022-12-25T21:43:29.039Z,7.28
2022-12-25T21:45:55.385Z,7.55
2022-12-25T21:48:21.733Z,6.75
2022-12-25T21:51:06.882Z,5.95
2022-12-25T21:53:33.202Z,6.55
2022-12-25T21:56:01.920Z,7.13
2022-12-25T21:58:28.583Z,7.68
2022-12-25T22:00:55.329Z,7.30
2022-12-25T22:03:23.100Z,7.50
2022-12-25T22:06:07.942Z,8.43
2022-12-25T22:08:34.356Z,7.25
2022-12-25T22:11:04.178Z,6.82
2022-12-25T22:13:49.162Z,7.25
2022-12-25T22:16:34.088Z,7.00
2022-12-25T22:19:19.168Z,6.80
2022-12-25T22:21:45.537Z,6.60
2022-12-25T22:24:11.939Z,7.13
2022-12-25T22:26:38.402Z,6.32
2022-12-25T22:29:04.767Z,7.15
2022-12-25T22:31:31.250Z,6.88
2022-12-25T22:33:57.616Z,7.25
2022-12-25T22:36:23.985Z,7.43
2022-12-25T22:38:50.357Z,7.28
2022-12-25T22:41:16.686Z,8.23
2022-12-25T22:44:16.097Z,8.43
2022-12-25T22:46:29.531Z,8.05
2022-12-25T22:48:56.460Z,9.35
2022-12-25T22:51:22.905Z,9.63
2022-12-25T22:53:50.043Z,9.23
2022-12-25T22:56:16.656Z,9.60
2022-12-25T22:58:43.119Z,10.43
2022-12-25T23:01:10.070Z,9.63
2022-12-25T23:03:36.609Z,9.60
2022-12-25T23:06:03.758Z,9.35
2022-12-25T23:08:30.071Z,9.07
2022-12-25T23:11:00.801Z,9.55
2022-12-25T23:13:46.066Z,9.20
2022-12-25T23:16:15.814Z,9.20
2022-12-25T23:19:08.487Z,9.38
2022-12-25T23:21:53.771Z,9.15
2022-12-25T23:24:38.886Z,8.10
2022-12-25T23:27:05.636Z,7.55
2022-12-25T23:29:37.808Z,7.43
2022-12-25T23:32:05.042Z,7.95
2022-12-25T23:34:31.655Z,6.97
2022-12-25T23:36:58.010Z,7.60
2022-12-25T23:39:24.305Z,7.15
2022-12-25T23:41:50.605Z,7.82
2022-12-25T23:44:16.966Z,7.38
2022-12-25T23:46:52.728Z,7.22
2022-12-25T23:49:19.966Z,8.20
2022-12-25T23:51:46.816Z,7.13
2022-12-25T23:54:14.467Z,7.22
2022-12-25T23:56:41.200Z,6.65
2022-12-25T23:59:07.780Z,7.15
